sensor_id;sensor_type;location;lat;lon;timestamp;pressure;altitude;pressure_sealevel;temperature
42119;BMP280;27783;42.782;23.274;2023-04-09T00:01:25;95729.91;;;7.03
42119;BMP280;27783;42.782;23.274;2023-04-09T00:03:50;95733.94;;;6.97
42119;BMP280;27783;42.782;23.274;2023-04-09T00:06:16;95728.59;;;6.90
42119;BMP280;27783;42.782;23.274;2023-04-09T00:08:41;95732.03;;;6.94
42119;BMP280;27783;42.782;23.274;2023-04-09T00:11:07;95728.16;;;6.88
42119;BMP280;27783;42.782;23.274;2023-04-09T00:13:34;95730.41;;;6.86
42119;BMP280;27783;42.782;23.274;2023-04-09T00:15:59;95736.41;;;6.87
42119;BMP280;27783;42.782;23.274;2023-04-09T00:18:25;95723.03;;;6.95
42119;BMP280;27783;42.782;23.274;2023-04-09T00:20:50;95735.84;;;7.00
42119;BMP280;27783;42.782;23.274;2023-04-09T00:23:15;95739.38;;;7.11
42119;BMP280;27783;42.782;23.274;2023-04-09T00:25:41;95730.13;;;7.20
42119;BMP280;27783;42.782;23.274;2023-04-09T00:28:06;95736.53;;;7.22
42119;BMP280;27783;42.782;23.274;2023-04-09T00:30:31;95741.50;;;7.31
42119;BMP280;27783;42.782;23.274;2023-04-09T00:32:57;95741.91;;;7.32
42119;BMP280;27783;42.782;23.274;2023-04-09T00:35:23;95734.63;;;7.19
42119;BMP280;27783;42.782;23.274;2023-04-09T00:37:48;95734.53;;;7.13
42119;BMP280;27783;42.782;23.274;2023-04-09T00:40:14;95736.09;;;7.17
42119;BMP280;27783;42.782;23.274;2023-04-09T00:42:39;95743.72;;;7.29
42119;BMP280;27783;42.782;23.274;2023-04-09T00:45:06;95749.06;;;7.35
42119;BMP280;27783;42.782;23.274;2023-04-09T00:47:33;95744.56;;;7.36
42119;BMP280;27783;42.782;23.274;2023-04-09T00:50:00;95745.28;;;7.33
42119;BMP280;27783;42.782;23.274;2023-04-09T00:52:26;95737.13;;;7.41
42119;BMP280;27783;42.782;23.274;2023-04-09T00:54:52;95737.91;;;7.42
42119;BMP280;27783;42.782;23.274;2023-04-09T00:57:18;95743.47;;;7.37
42119;BMP280;27783;42.782;23.274;2023-04-09T00:59:44;95746.88;;;7.41
42119;BMP280;27783;42.782;23.274;2023-04-09T01:02:10;95737.47;;;7.36
42119;BMP280;27783;42.782;23.274;2023-04-09T01:04:37;95727.53;;;7.52
42119;BMP280;27783;42.782;23.274;2023-04-09T01:09:49;95728.59;;;7.48
42119;BMP280;27783;42.782;23.274;2023-04-09T01:15:17;95730.34;;;7.37
42119;BMP280;27783;42.782;23.274;2023-04-09T01:18:21;95737.00;;;7.31
42119;BMP280;27783;42.782;23.274;2023-04-09T01:20:56;95730.03;;;7.13
42119;BMP280;27783;42.782;23.274;2023-04-09T01:26:28;95732.28;;;7.15
42119;BMP280;27783;42.782;23.274;2023-04-09T01:28:59;95728.94;;;7.43
42119;BMP280;27783;42.782;23.274;2023-04-09T01:31:33;95737.94;;;7.45
42119;BMP280;27783;42.782;23.274;2023-04-09T01:34:00;95746.72;;;7.27
42119;BMP280;27783;42.782;23.274;2023-04-09T01:36:26;95743.22;;;6.95
42119;BMP280;27783;42.782;23.274;2023-04-09T01:38:54;95753.03;;;6.98
42119;BMP280;27783;42.782;23.274;2023-04-09T01:41:21;95754.63;;;7.05
42119;BMP280;27783;42.782;23.274;2023-04-09T01:43:48;95752.81;;;7.09
42119;BMP280;27783;42.782;23.274;2023-04-09T01:46:15;95749.47;;;7.12
42119;BMP280;27783;42.782;23.274;2023-04-09T01:48:42;95750.28;;;7.16
42119;BMP280;27783;42.782;23.274;2023-04-09T01:51:07;95749.19;;;7.17
42119;BMP280;27783;42.782;23.274;2023-04-09T01:53:33;95748.78;;;7.15
42119;BMP280;27783;42.782;23.274;2023-04-09T01:55:58;95747.66;;;7.16
42119;BMP280;27783;42.782;23.274;2023-04-09T01:58:25;95750.34;;;7.19
42119;BMP280;27783;42.782;23.274;2023-04-09T02:00:54;95740.66;;;7.23
42119;BMP280;27783;42.782;23.274;2023-04-09T02:03:24;95739.47;;;7.17
42119;BMP280;27783;42.782;23.274;2023-04-09T02:06:14;95745.38;;;7.15
42119;BMP280;27783;42.782;23.274;2023-04-09T02:08:46;95740.97;;;7.18
42119;BMP280;27783;42.782;23.274;2023-04-09T02:11:12;95749.66;;;6.97
42119;BMP280;27783;42.782;23.274;2023-04-09T02:13:39;95739.34;;;6.85
42119;BMP280;27783;42.782;23.274;2023-04-09T02:16:06;95741.28;;;6.88
42119;BMP280;27783;42.782;23.274;2023-04-09T02:18:32;95741.88;;;6.79
42119;BMP280;27783;42.782;23.274;2023-04-09T02:20:58;95740.72;;;6.76
42119;BMP280;27783;42.782;23.274;2023-04-09T02:23:25;95742.69;;;6.82
42119;BMP280;27783;42.782;23.274;2023-04-09T02:25:52;95740.16;;;6.89
42119;BMP280;27783;42.782;23.274;2023-04-09T02:28:17;95739.34;;;6.85
42119;BMP280;27783;42.782;23.274;2023-04-09T02:30:43;95739.50;;;6.96
42119;BMP280;27783;42.782;23.274;2023-04-09T02:33:09;95742.56;;;6.98
42119;BMP280;27783;42.782;23.274;2023-04-09T02:35:34;95742.91;;;6.96
42119;BMP280;27783;42.782;23.274;2023-04-09T02:38:00;95743.88;;;6.88
42119;BMP280;27783;42.782;23.274;2023-04-09T02:40:26;95751.81;;;6.92
42119;BMP280;27783;42.782;23.274;2023-04-09T02:42:52;95752.38;;;7.04
42119;BMP280;27783;42.782;23.274;2023-04-09T02:45:17;95751.56;;;7.00
42119;BMP280;27783;42.782;23.274;2023-04-09T02:47:43;95741.69;;;6.90
42119;BMP280;27783;42.782;23.274;2023-04-09T02:50:08;95740.88;;;6.86
42119;BMP280;27783;42.782;23.274;2023-04-09T02:52:33;95740.78;;;6.80
42119;BMP280;27783;42.782;23.274;2023-04-09T02:54:59;95736.94;;;6.74
42119;BMP280;27783;42.782;23.274;2023-04-09T02:57:24;95730.94;;;6.73
42119;BMP280;27783;42.782;23.274;2023-04-09T02:59:49;95729.47;;;6.76
42119;BMP280;27783;42.782;23.274;2023-04-09T03:02:15;95730.50;;;6.68
42119;BMP280;27783;42.782;23.274;2023-04-09T03:04:40;95736.91;;;6.70
42119;BMP280;27783;42.782;23.274;2023-04-09T03:07:06;95735.63;;;6.61
42119;BMP280;27783;42.782;23.274;2023-04-09T03:09:31;95739.00;;;6.62
42119;BMP280;27783;42.782;23.274;2023-04-09T03:11:56;95736.19;;;6.73
42119;BMP280;27783;42.782;23.274;2023-04-09T03:14:23;95733.03;;;6.61
42119;BMP280;27783;42.782;23.274;2023-04-09T03:16:48;95735.75;;;6.68
42119;BMP280;27783;42.782;23.274;2023-04-09T03:19:13;95735.31;;;6.88
42119;BMP280;27783;42.782;23.274;2023-04-09T03:21:39;95734.97;;;6.93
42119;BMP280;27783;42.782;23.274;2023-04-09T03:24:05;95729.53;;;6.79
42119;BMP280;27783;42.782;23.274;2023-04-09T03:26:30;95727.53;;;6.69
42119;BMP280;27783;42.782;23.274;2023-04-09T03:29:01;95731.50;;;6.60
42119;BMP280;27783;42.782;23.274;2023-04-09T03:31:26;95721.78;;;6.61
42119;BMP280;27783;42.782;23.274;2023-04-09T03:33:52;95720.81;;;6.47
42119;BMP280;27783;42.782;23.274;2023-04-09T03:36:17;95725.53;;;6.38
42119;BMP280;27783;42.782;23.274;2023-04-09T03:38:42;95729.13;;;6.30
42119;BMP280;27783;42.782;23.274;2023-04-09T03:41:08;95732.13;;;6.29
42119;BMP280;27783;42.782;23.274;2023-04-09T03:43:33;95736.59;;;6.28
42119;BMP280;27783;42.782;23.274;2023-04-09T03:45:58;95734.66;;;6.25
42119;BMP280;27783;42.782;23.274;2023-04-09T03:48:24;95732.28;;;6.17
42119;BMP280;27783;42.782;23.274;2023-04-09T03:50:50;95737.69;;;6.05
42119;BMP280;27783;42.782;23.274;2023-04-09T03:53:17;95742.97;;;6.09
42119;BMP280;27783;42.782;23.274;2023-04-09T03:55:42;95744.78;;;6.05
42119;BMP280;27783;42.782;23.274;2023-04-09T03:58:08;95753.53;;;5.94
42119;BMP280;27783;42.782;23.274;2023-04-09T04:00:33;95748.34;;;6.16
42119;BMP280;27783;42.782;23.274;2023-04-09T04:02:59;95757.84;;;6.05
42119;BMP280;27783;42.782;23.274;2023-04-09T04:05:24;95761.03;;;5.95
42119;BMP280;27783;42.782;23.274;2023-04-09T04:07:50;95771.06;;;5.93
42119;BMP280;27783;42.782;23.274;2023-04-09T04:10:15;95762.25;;;6.01
42119;BMP280;27783;42.782;23.274;2023-04-09T04:12:41;95757.34;;;5.78
42119;BMP280;27783;42.782;23.274;2023-04-09T04:15:07;95766.84;;;5.85
42119;BMP280;27783;42.782;23.274;2023-04-09T04:17:32;95770.50;;;6.03
42119;BMP280;27783;42.782;23.274;2023-04-09T04:19:57;95759.25;;;5.99
42119;BMP280;27783;42.782;23.274;2023-04-09T04:22:23;95761.88;;;6.21
42119;BMP280;27783;42.782;23.274;2023-04-09T04:24:48;95755.44;;;6.15
42119;BMP280;27783;42.782;23.274;2023-04-09T04:27:14;95753.66;;;6.22
42119;BMP280;27783;42.782;23.274;2023-04-09T04:29:39;95760.94;;;6.10
42119;BMP280;27783;42.782;23.274;2023-04-09T04:32:04;95772.38;;;6.02
42119;BMP280;27783;42.782;23.274;2023-04-09T04:34:30;95763.47;;;6.07
42119;BMP280;27783;42.782;23.274;2023-04-09T04:36:55;95765.81;;;6.12
42119;BMP280;27783;42.782;23.274;2023-04-09T04:39:22;95761.44;;;6.19
42119;BMP280;27783;42.782;23.274;2023-04-09T04:41:47;95759.59;;;6.19
42119;BMP280;27783;42.782;23.274;2023-04-09T04:44:12;95765.00;;;6.30
42119;BMP280;27783;42.782;23.274;2023-04-09T04:46:38;95764.66;;;6.31
42119;BMP280;27783;42.782;23.274;2023-04-09T04:49:03;95771.31;;;6.07
42119;BMP280;27783;42.782;23.274;2023-04-09T04:51:32;95778.66;;;5.98
42119;BMP280;27783;42.782;23.274;2023-04-09T04:53:57;95771.63;;;6.02
42119;BMP280;27783;42.782;23.274;2023-04-09T04:56:23;95776.44;;;6.00
42119;BMP280;27783;42.782;23.274;2023-04-09T04:58:49;95776.22;;;6.08
42119;BMP280;27783;42.782;23.274;2023-04-09T05:01:15;95781.66;;;6.18
42119;BMP280;27783;42.782;23.274;2023-04-09T05:03:40;95768.31;;;6.27
42119;BMP280;27783;42.782;23.274;2023-04-09T05:06:05;95774.25;;;6.46
42119;BMP280;27783;42.782;23.274;2023-04-09T05:08:31;95767.69;;;6.33
42119;BMP280;27783;42.782;23.274;2023-04-09T05:10:57;95774.16;;;6.61
42119;BMP280;27783;42.782;23.274;2023-04-09T05:13:23;95764.16;;;6.91
42119;BMP280;27783;42.782;23.274;2023-04-09T05:15:48;95764.88;;;7.14
42119;BMP280;27783;42.782;23.274;2023-04-09T05:18:14;95766.25;;;7.33
42119;BMP280;27783;42.782;23.274;2023-04-09T05:20:40;95771.38;;;7.51
42119;BMP280;27783;42.782;23.274;2023-04-09T05:23:05;95768.19;;;7.68
42119;BMP280;27783;42.782;23.274;2023-04-09T05:25:34;95767.56;;;7.78
42119;BMP280;27783;42.782;23.274;2023-04-09T05:27:59;95774.50;;;7.92
42119;BMP280;27783;42.782;23.274;2023-04-09T05:30:25;95764.38;;;7.94
42119;BMP280;27783;42.782;23.274;2023-04-09T05:32:50;95765.34;;;8.08
42119;BMP280;27783;42.782;23.274;2023-04-09T05:35:16;95767.56;;;8.06
42119;BMP280;27783;42.782;23.274;2023-04-09T05:37:41;95763.84;;;8.11
42119;BMP280;27783;42.782;23.274;2023-04-09T05:40:07;95769.50;;;8.13
42119;BMP280;27783;42.782;23.274;2023-04-09T05:42:32;95777.56;;;8.33
42119;BMP280;27783;42.782;23.274;2023-04-09T05:44:58;95761.56;;;8.45
42119;BMP280;27783;42.782;23.274;2023-04-09T05:47:23;95771.44;;;8.58
42119;BMP280;27783;42.782;23.274;2023-04-09T05:49:49;95766.53;;;8.56
42119;BMP280;27783;42.782;23.274;2023-04-09T05:52:14;95777.59;;;8.72
42119;BMP280;27783;42.782;23.274;2023-04-09T05:54:41;95768.66;;;8.83
42119;BMP280;27783;42.782;23.274;2023-04-09T05:57:06;95775.94;;;9.03
42119;BMP280;27783;42.782;23.274;2023-04-09T05:59:31;95779.84;;;8.77
42119;BMP280;27783;42.782;23.274;2023-04-09T06:01:57;95780.16;;;8.65
42119;BMP280;27783;42.782;23.274;2023-04-09T06:04:23;95777.59;;;8.75
42119;BMP280;27783;42.782;23.274;2023-04-09T06:06:48;95786.16;;;8.66
42119;BMP280;27783;42.782;23.274;2023-04-09T06:09:13;95781.03;;;8.82
42119;BMP280;27783;42.782;23.274;2023-04-09T06:11:39;95778.06;;;8.87
42119;BMP280;27783;42.782;23.274;2023-04-09T06:14:04;95774.84;;;9.07
42119;BMP280;27783;42.782;23.274;2023-04-09T06:16:30;95776.50;;;9.32
42119;BMP280;27783;42.782;23.274;2023-04-09T06:18:56;95777.69;;;9.38
42119;BMP280;27783;42.782;23.274;2023-04-09T06:21:22;95778.25;;;9.74
42119;BMP280;27783;42.782;23.274;2023-04-09T06:23:47;95784.47;;;9.46
42119;BMP280;27783;42.782;23.274;2023-04-09T06:26:13;95789.78;;;9.56
42119;BMP280;27783;42.782;23.274;2023-04-09T06:28:39;95781.09;;;9.48
42119;BMP280;27783;42.782;23.274;2023-04-09T06:31:04;95788.59;;;9.40
42119;BMP280;27783;42.782;23.274;2023-04-09T06:33:29;95786.47;;;9.69
42119;BMP280;27783;42.782;23.274;2023-04-09T06:35:56;95781.06;;;10.25
42119;BMP280;27783;42.782;23.274;2023-04-09T06:38:22;95789.75;;;10.25
42119;BMP280;27783;42.782;23.274;2023-04-09T06:40:48;95788.19;;;10.14
42119;BMP280;27783;42.782;23.274;2023-04-09T06:43:14;95793.44;;;10.00
42119;BMP280;27783;42.782;23.274;2023-04-09T06:45:40;95783.59;;;9.87
42119;BMP280;27783;42.782;23.274;2023-04-09T06:48:06;95787.38;;;9.93
42119;BMP280;27783;42.782;23.274;2023-04-09T06:50:32;95794.19;;;10.08
42119;BMP280;27783;42.782;23.274;2023-04-09T06:52:57;95794.16;;;9.94
42119;BMP280;27783;42.782;23.274;2023-04-09T06:55:23;95794.50;;;9.89
42119;BMP280;27783;42.782;23.274;2023-04-09T06:57:48;95800.94;;;9.99
42119;BMP280;27783;42.782;23.274;2023-04-09T07:00:14;95789.69;;;10.12
42119;BMP280;27783;42.782;23.274;2023-04-09T07:02:39;95809.59;;;9.99
42119;BMP280;27783;42.782;23.274;2023-04-09T07:05:05;95805.53;;;10.18
42119;BMP280;27783;42.782;23.274;2023-04-09T07:07:31;95800.53;;;9.93
42119;BMP280;27783;42.782;23.274;2023-04-09T07:09:56;95811.03;;;9.86
42119;BMP280;27783;42.782;23.274;2023-04-09T07:14:51;95806.22;;;10.02
42119;BMP280;27783;42.782;23.274;2023-04-09T07:17:16;95802.81;;;10.01
42119;BMP280;27783;42.782;23.274;2023-04-09T07:19:42;95799.16;;;10.26
42119;BMP280;27783;42.782;23.274;2023-04-09T07:22:07;95805.22;;;10.37
42119;BMP280;27783;42.782;23.274;2023-04-09T07:24:32;95801.47;;;10.48
42119;BMP280;27783;42.782;23.274;2023-04-09T07:27:02;95807.88;;;10.57
42119;BMP280;27783;42.782;23.274;2023-04-09T07:29:28;95809.41;;;10.68
42119;BMP280;27783;42.782;23.274;2023-04-09T07:31:53;95803.41;;;10.88
42119;BMP280;27783;42.782;23.274;2023-04-09T07:34:19;95807.94;;;11.15
42119;BMP280;27783;42.782;23.274;2023-04-09T07:36:44;95797.38;;;10.88
42119;BMP280;27783;42.782;23.274;2023-04-09T07:39:09;95813.09;;;10.27
42119;BMP280;27783;42.782;23.274;2023-04-09T07:41:35;95815.31;;;10.21
42119;BMP280;27783;42.782;23.274;2023-04-09T07:44:01;95818.44;;;10.61
42119;BMP280;27783;42.782;23.274;2023-04-09T07:46:27;95816.88;;;10.36
42119;BMP280;27783;42.782;23.274;2023-04-09T07:48:53;95822.19;;;10.46
42119;BMP280;27783;42.782;23.274;2023-04-09T07:51:18;95815.47;;;10.82
42119;BMP280;27783;42.782;23.274;2023-04-09T07:53:44;95813.56;;;10.93
42119;BMP280;27783;42.782;23.274;2023-04-09T07:56:10;95806.81;;;10.92
42119;BMP280;27783;42.782;23.274;2023-04-09T07:58:36;95807.94;;;11.39
42119;BMP280;27783;42.782;23.274;2023-04-09T08:01:04;95810.19;;;10.86
42119;BMP280;27783;42.782;23.274;2023-04-09T08:03:30;95816.19;;;10.93
42119;BMP280;27783;42.782;23.274;2023-04-09T08:05:55;95824.50;;;10.88
42119;BMP280;27783;42.782;23.274;2023-04-09T08:08:21;95813.56;;;10.93
42119;BMP280;27783;42.782;23.274;2023-04-09T08:10:47;95821.88;;;11.19
42119;BMP280;27783;42.782;23.274;2023-04-09T08:13:12;95820.72;;;11.23
42119;BMP280;27783;42.782;23.274;2023-04-09T08:15:37;95823.38;;;11.13
42119;BMP280;27783;42.782;23.274;2023-04-09T08:18:03;95827.91;;;11.36
42119;BMP280;27783;42.782;23.274;2023-04-09T08:20:29;95826.38;;;10.78
42119;BMP280;27783;42.782;23.274;2023-04-09T08:22:57;95834.25;;;10.67
42119;BMP280;27783;42.782;23.274;2023-04-09T08:25:23;95830.16;;;10.97
42119;BMP280;27783;42.782;23.274;2023-04-09T08:27:49;95830.53;;;11.19
42119;BMP280;27783;42.782;23.274;2023-04-09T08:30:15;95835.03;;;10.75
42119;BMP280;27783;42.782;23.274;2023-04-09T08:32:41;95824.91;;;11.31
42119;BMP280;27783;42.782;23.274;2023-04-09T08:35:10;95826.00;;;11.16
42119;BMP280;27783;42.782;23.274;2023-04-09T08:37:35;95816.63;;;11.29
42119;BMP280;27783;42.782;23.274;2023-04-09T08:40:00;95818.84;;;11.58
42119;BMP280;27783;42.782;23.274;2023-04-09T08:42:26;95823.00;;;11.18
42119;BMP280;27783;42.782;23.274;2023-04-09T08:44:53;95820.72;;;11.03
42119;BMP280;27783;42.782;23.274;2023-04-09T08:47:19;95822.63;;;11.36
42119;BMP280;27783;42.782;23.274;2023-04-09T08:49:46;95813.94;;;11.53
42119;BMP280;27783;42.782;23.274;2023-04-09T08:52:13;95806.44;;;11.31
42119;BMP280;27783;42.782;23.274;2023-04-09T08:54:40;95810.97;;;11.37
42119;BMP280;27783;42.782;23.274;2023-04-09T08:57:05;95804.56;;;11.28
42119;BMP280;27783;42.782;23.274;2023-04-09T08:59:31;95802.59;;;11.59
42119;BMP280;27783;42.782;23.274;2023-04-09T09:02:10;95806.44;;;11.45
42119;BMP280;27783;42.782;23.274;2023-04-09T09:04:48;95802.25;;;11.64
42119;BMP280;27783;42.782;23.274;2023-04-09T09:07:14;95798.81;;;11.74
42119;BMP280;27783;42.782;23.274;2023-04-09T09:09:50;95782.84;;;12.08
42119;BMP280;27783;42.782;23.274;2023-04-09T09:12:39;95786.72;;;11.83
42119;BMP280;27783;42.782;23.274;2023-04-09T09:15:24;95787.03;;;11.92
42119;BMP280;27783;42.782;23.274;2023-04-09T09:17:56;95781.81;;;11.82
42119;BMP280;27783;42.782;23.274;2023-04-09T09:20:22;95783.97;;;12.07
42119;BMP280;27783;42.782;23.274;2023-04-09T09:22:53;95777.06;;;12.33
42119;BMP280;27783;42.782;23.274;2023-04-09T09:25:19;95778.94;;;12.36
42119;BMP280;27783;42.782;23.274;2023-04-09T09:27:52;95779.09;;;12.72
42119;BMP280;27783;42.782;23.274;2023-04-09T09:30:22;95784.00;;;12.00
42119;BMP280;27783;42.782;23.274;2023-04-09T09:32:54;95772.31;;;12.04
42119;BMP280;27783;42.782;23.274;2023-04-09T09:35:28;95782.59;;;12.59
42119;BMP280;27783;42.782;23.274;2023-04-09T09:38:02;95770.34;;;12.82
42119;BMP280;27783;42.782;23.274;2023-04-09T09:40:28;95768.44;;;12.22
42119;BMP280;27783;42.782;23.274;2023-04-09T09:42:55;95772.69;;;12.73
42119;BMP280;27783;42.782;23.274;2023-04-09T09:45:24;95763.00;;;12.46
42119;BMP280;27783;42.782;23.274;2023-04-09T09:48:00;95762.22;;;12.52
42119;BMP280;27783;42.782;23.274;2023-04-09T09:50:29;95763.41;;;12.41
42119;BMP280;27783;42.782;23.274;2023-04-09T09:53:04;95752.59;;;12.79
42119;BMP280;27783;42.782;23.274;2023-04-09T09:55:31;95759.25;;;13.43
42119;BMP280;27783;42.782;23.274;2023-04-09T09:58:00;95751.47;;;12.80
42119;BMP280;27783;42.782;23.274;2023-04-09T10:00:28;95749.25;;;13.57
42119;BMP280;27783;42.782;23.274;2023-04-09T10:02:58;95743.59;;;14.20
42119;BMP280;27783;42.782;23.274;2023-04-09T10:05:24;95742.97;;;13.41
42119;BMP280;27783;42.782;23.274;2023-04-09T10:07:59;95745.69;;;13.34
42119;BMP280;27783;42.782;23.274;2023-04-09T10:10:24;95745.34;;;13.68
42119;BMP280;27783;42.782;23.274;2023-04-09T10:12:51;95743.41;;;13.72
42119;BMP280;27783;42.782;23.274;2023-04-09T10:15:20;95722.69;;;15.02
42119;BMP280;27783;42.782;23.274;2023-04-09T10:17:45;95730.00;;;14.69
42119;BMP280;27783;42.782;23.274;2023-04-09T10:20:35;95737.09;;;14.24
42119;BMP280;27783;42.782;23.274;2023-04-09T10:23:09;95732.91;;;13.65
42119;BMP280;27783;42.782;23.274;2023-04-09T10:25:36;95721.16;;;13.66
42119;BMP280;27783;42.782;23.274;2023-04-09T10:28:01;95726.19;;;13.90
42119;BMP280;27783;42.782;23.274;2023-04-09T10:30:38;95733.09;;;14.39
42119;BMP280;27783;42.782;23.274;2023-04-09T10:33:12;95725.75;;;13.62
42119;BMP280;27783;42.782;23.274;2023-04-09T10:35:37;95728.44;;;13.91
42119;BMP280;27783;42.782;23.274;2023-04-09T10:38:06;95725.38;;;14.25
42119;BMP280;27783;42.782;23.274;2023-04-09T10:40:31;95701.13;;;15.42
42119;BMP280;27783;42.782;23.274;2023-04-09T10:42:58;95703.56;;;15.33
42119;BMP280;27783;42.782;23.274;2023-04-09T10:45:23;95704.38;;;15.08
42119;BMP280;27783;42.782;23.274;2023-04-09T10:47:50;95699.13;;;15.27
42119;BMP280;27783;42.782;23.274;2023-04-09T10:50:24;95700.88;;;15.14
42119;BMP280;27783;42.782;23.274;2023-04-09T10:52:54;95694.09;;;15.32
42119;BMP280;27783;42.782;23.274;2023-04-09T10:55:40;95693.41;;;15.06
42119;BMP280;27783;42.782;23.274;2023-04-09T10:58:10;95688.06;;;14.35
42119;BMP280;27783;42.782;23.274;2023-04-09T11:00:40;95686.72;;;15.20
42119;BMP280;27783;42.782;23.274;2023-04-09T11:03:25;95686.72;;;15.20
42119;BMP280;27783;42.782;23.274;2023-04-09T11:08:30;95668.06;;;14.31
42119;BMP280;27783;42.782;23.274;2023-04-09T11:10:55;95677.47;;;14.61
42119;BMP280;27783;42.782;23.274;2023-04-09T11:13:23;95677.47;;;14.61
42119;BMP280;27783;42.782;23.274;2023-04-09T11:15:49;95658.13;;;15.28
42119;BMP280;27783;42.782;23.274;2023-04-09T11:18:19;95661.88;;;15.30
42119;BMP280;27783;42.782;23.274;2023-04-09T11:20:44;95664.69;;;15.80
42119;BMP280;27783;42.782;23.274;2023-04-09T11:23:11;95642.56;;;16.83
42119;BMP280;27783;42.782;23.274;2023-04-09T11:25:37;95662.97;;;15.33
42119;BMP280;27783;42.782;23.274;2023-04-09T11:28:03;95659.50;;;14.94
42119;BMP280;27783;42.782;23.274;2023-04-09T11:30:29;95654.59;;;14.93
42119;BMP280;27783;42.782;23.274;2023-04-09T11:32:56;95645.50;;;15.13
42119;BMP280;27783;42.782;23.274;2023-04-09T11:35:21;95658.00;;;15.34
42119;BMP280;27783;42.782;23.274;2023-04-09T11:37:48;95653.81;;;14.70
42119;BMP280;27783;42.782;23.274;2023-04-09T11:40:20;95652.91;;;14.32
42119;BMP280;27783;42.782;23.274;2023-04-09T11:42:51;95655.19;;;14.55
42119;BMP280;27783;42.782;23.274;2023-04-09T11:45:18;95636.69;;;14.26
42119;BMP280;27783;42.782;23.274;2023-04-09T11:47:44;95638.53;;;14.77
42119;BMP280;27783;42.782;23.274;2023-04-09T11:50:11;95641.88;;;14.81
42119;BMP280;27783;42.782;23.274;2023-04-09T11:52:37;95640.72;;;14.82
42119;BMP280;27783;42.782;23.274;2023-04-09T11:55:04;95643.44;;;14.56
42119;BMP280;27783;42.782;23.274;2023-04-09T11:57:44;95650.56;;;14.37
42119;BMP280;27783;42.782;23.274;2023-04-09T12:02:45;95638.16;;;14.31
42119;BMP280;27783;42.782;23.274;2023-04-09T12:05:12;95637.69;;;14.10
42119;BMP280;27783;42.782;23.274;2023-04-09T12:07:38;95635.41;;;14.12
42119;BMP280;27783;42.782;23.274;2023-04-09T12:10:08;95631.97;;;14.15
42119;BMP280;27783;42.782;23.274;2023-04-09T12:13:01;95626.94;;;14.68
42119;BMP280;27783;42.782;23.274;2023-04-09T12:15:34;95622.88;;;14.83
42119;BMP280;27783;42.782;23.274;2023-04-09T12:18:00;95614.03;;;14.48
42119;BMP280;27783;42.782;23.274;2023-04-09T12:20:33;95615.34;;;15.03
42119;BMP280;27783;42.782;23.274;2023-04-09T12:23:00;95619.78;;;14.87
42119;BMP280;27783;42.782;23.274;2023-04-09T12:25:46;95619.09;;;14.61
42119;BMP280;27783;42.782;23.274;2023-04-09T12:28:13;95618.09;;;15.57
42119;BMP280;27783;42.782;23.274;2023-04-09T12:30:40;95621.28;;;15.49
42119;BMP280;27783;42.782;23.274;2023-04-09T12:33:07;95613.22;;;15.71
42119;BMP280;27783;42.782;23.274;2023-04-09T12:35:33;95609.56;;;15.08
42119;BMP280;27783;42.782;23.274;2023-04-09T12:37:59;95611.31;;;15.15
42119;BMP280;27783;42.782;23.274;2023-04-09T12:40:25;95618.06;;;15.19
42119;BMP280;27783;42.782;23.274;2023-04-09T12:42:51;95609.09;;;15.51
42119;BMP280;27783;42.782;23.274;2023-04-09T12:45:18;95610.84;;;15.01
42119;BMP280;27783;42.782;23.274;2023-04-09T12:47:43;95617.53;;;14.86
42119;BMP280;27783;42.782;23.274;2023-04-09T12:50:10;95627.75;;;14.87
42119;BMP280;27783;42.782;23.274;2023-04-09T12:52:36;95619.78;;;14.87
42119;BMP280;27783;42.782;23.274;2023-04-09T12:55:03;95620.94;;;14.86
42119;BMP280;27783;42.782;23.274;2023-04-09T12:57:30;95631.84;;;14.92
42119;BMP280;27783;42.782;23.274;2023-04-09T12:59:56;95614.13;;;14.41
42119;BMP280;27783;42.782;23.274;2023-04-09T13:02:22;95620.28;;;15.24
42119;BMP280;27783;42.782;23.274;2023-04-09T13:04:48;95623.63;;;13.87
42119;BMP280;27783;42.782;23.274;2023-04-09T13:07:14;95611.00;;;15.69
42119;BMP280;27783;42.782;23.274;2023-04-09T13:09:41;95618.31;;;15.81
42119;BMP280;27783;42.782;23.274;2023-04-09T13:12:06;95603.59;;;15.42
42119;BMP280;27783;42.782;23.274;2023-04-09T13:14:32;95608.50;;;15.97
42119;BMP280;27783;42.782;23.274;2023-04-09T13:16:57;95599.47;;;15.76
42119;BMP280;27783;42.782;23.274;2023-04-09T13:19:23;95602.13;;;15.76
42119;BMP280;27783;42.782;23.274;2023-04-09T13:21:48;95601.13;;;14.94
42119;BMP280;27783;42.782;23.274;2023-04-09T13:24:14;95605.94;;;14.77
42119;BMP280;27783;42.782;23.274;2023-04-09T13:26:39;95599.50;;;14.07
42119;BMP280;27783;42.782;23.274;2023-04-09T13:29:06;95595.84;;;14.68
42119;BMP280;27783;42.782;23.274;2023-04-09T13:31:34;95596.00;;;14.36
42119;BMP280;27783;42.782;23.274;2023-04-09T13:34:00;95605.69;;;13.43
42119;BMP280;27783;42.782;23.274;2023-04-09T13:36:27;95599.75;;;13.90
42119;BMP280;27783;42.782;23.274;2023-04-09T13:38:53;95606.19;;;13.31
42119;BMP280;27783;42.782;23.274;2023-04-09T13:41:20;95600.97;;;13.53
42119;BMP280;27783;42.782;23.274;2023-04-09T13:43:45;95602.25;;;13.71
42119;BMP280;27783;42.782;23.274;2023-04-09T13:46:11;95605.06;;;13.61
42119;BMP280;27783;42.782;23.274;2023-04-09T13:48:36;95609.97;;;12.58
42119;BMP280;27783;42.782;23.274;2023-04-09T13:51:01;95608.50;;;12.93
42119;BMP280;27783;42.782;23.274;2023-04-09T13:53:27;95612.00;;;12.83
42119;BMP280;27783;42.782;23.274;2023-04-09T13:55:52;95606.28;;;12.88
42119;BMP280;27783;42.782;23.274;2023-04-09T13:58:18;95604.16;;;12.77
42119;BMP280;27783;42.782;23.274;2023-04-09T14:00:46;95607.25;;;12.65
42119;BMP280;27783;42.782;23.274;2023-04-09T14:03:12;95601.75;;;12.89
42119;BMP280;27783;42.782;23.274;2023-04-09T14:05:38;95606.03;;;12.76
42119;BMP280;27783;42.782;23.274;2023-04-09T14:08:03;95598.13;;;12.73
42119;BMP280;27783;42.782;23.274;2023-04-09T14:10:31;95607.31;;;12.55
42119;BMP280;27783;42.782;23.274;2023-04-09T14:12:59;95599.19;;;12.79
42119;BMP280;27783;42.782;23.274;2023-04-09T14:15:45;95610.34;;;12.60
42119;BMP280;27783;42.782;23.274;2023-04-09T14:18:10;95602.38;;;12.64